sensor_id;sensor_type;location;lat;lon;timestamp;P1;durP1;ratioP1;P2;durP2;ratioP2
51558;SDS011;61650;48.882;2.092;2022-07-10T00:00:08;1.90;;;1.67;;
51558;SDS011;61650;48.882;2.092;2022-07-10T00:02:36;2.30;;;1.50;;
51558;SDS011;61650;48.882;2.092;2022-07-10T00:05:03;2.43;;;1.80;;
51558;SDS011;61650;48.882;2.092;2022-07-10T00:07:29;3.83;;;1.63;;
51558;SDS011;61650;48.882;2.092;2022-07-10T00:09:54;3.60;;;1.80;;
51558;SDS011;61650;48.882;2.092;2022-07-10T00:12:20;2.60;;;1.90;;
51558;SDS011;61650;48.882;2.092;2022-07-10T00:14:45;2.90;;;1.53;;
51558;SDS011;61650;48.882;2.092;2022-07-10T00:17:11;1.77;;;1.60;;
51558;SDS011;61650;48.882;2.092;2022-07-10T00:19:37;1.67;;;1.57;;
51558;SDS011;61650;48.882;2.092;2022-07-10T00:22:02;1.80;;;1.70;;
51558;SDS011;61650;48.882;2.092;2022-07-10T00:24:28;2.60;;;2.00;;
51558;SDS011;61650;48.882;2.092;2022-07-10T00:26:54;2.20;;;2.00;;
51558;SDS011;61650;48.882;2.092;2022-07-10T00:29:19;3.53;;;2.10;;
51558;SDS011;61650;48.882;2.092;2022-07-10T00:31:45;2.23;;;1.70;;
51558;SDS011;61650;48.882;2.092;2022-07-10T00:34:11;2.90;;;2.47;;
51558;SDS011;61650;48.882;2.092;2022-07-10T00:36:37;2.13;;;1.80;;
51558;SDS011;61650;48.882;2.092;2022-07-10T00:39:03;4.37;;;2.20;;
51558;SDS011;61650;48.882;2.092;2022-07-10T00:41:28;3.63;;;2.00;;
51558;SDS011;61650;48.882;2.092;2022-07-10T00:43:58;2.50;;;2.03;;
51558;SDS011;61650;48.882;2.092;2022-07-10T00:46:25;1.90;;;1.80;;
51558;SDS011;61650;48.882;2.092;2022-07-10T00:48:51;4.83;;;2.10;;
51558;SDS011;61650;48.882;2.092;2022-07-10T00:51:18;2.70;;;2.13;;
51558;SDS011;61650;48.882;2.092;2022-07-10T00:53:46;3.13;;;1.90;;
51558;SDS011;61650;48.882;2.092;2022-07-10T00:56:17;3.70;;;1.80;;
51558;SDS011;61650;48.882;2.092;2022-07-10T00:58:45;4.30;;;2.20;;
51558;SDS011;61650;48.882;2.092;2022-07-10T01:01:11;2.70;;;2.10;;
51558;SDS011;61650;48.882;2.092;2022-07-10T01:03:37;2.53;;;2.00;;
51558;SDS011;61650;48.882;2.092;2022-07-10T01:06:03;2.13;;;1.93;;
51558;SDS011;61650;48.882;2.092;2022-07-10T01:08:29;2.57;;;2.00;;
51558;SDS011;61650;48.882;2.092;2022-07-10T01:10:54;2.17;;;1.97;;
51558;SDS011;61650;48.882;2.092;2022-07-10T01:13:20;2.93;;;2.37;;
51558;SDS011;61650;48.882;2.092;2022-07-10T01:15:46;3.50;;;1.90;;
51558;SDS011;61650;48.882;2.092;2022-07-10T01:18:13;3.00;;;2.20;;
51558;SDS011;61650;48.882;2.092;2022-07-10T01:20:42;4.30;;;2.10;;
51558;SDS011;61650;48.882;2.092;2022-07-10T01:23:07;2.00;;;1.80;;
51558;SDS011;61650;48.882;2.092;2022-07-10T01:25:33;2.70;;;2.20;;
51558;SDS011;61650;48.882;2.092;2022-07-10T01:27:59;2.37;;;2.17;;
51558;SDS011;61650;48.882;2.092;2022-07-10T01:30:25;2.90;;;2.13;;
51558;SDS011;61650;48.882;2.092;2022-07-10T01:32:51;2.63;;;2.10;;
51558;SDS011;61650;48.882;2.092;2022-07-10T01:35:19;2.63;;;2.43;;
51558;SDS011;61650;48.882;2.092;2022-07-10T01:37:45;4.40;;;2.10;;
51558;SDS011;61650;48.882;2.092;2022-07-10T01:40:11;4.23;;;2.03;;
51558;SDS011;61650;48.882;2.092;2022-07-10T01:42:37;4.37;;;2.13;;
51558;SDS011;61650;48.882;2.092;2022-07-10T01:45:07;3.40;;;2.30;;
51558;SDS011;61650;48.882;2.092;2022-07-10T01:47:34;2.53;;;2.23;;
51558;SDS011;61650;48.882;2.092;2022-07-10T01:50:00;3.07;;;2.43;;
51558;SDS011;61650;48.882;2.092;2022-07-10T01:52:26;2.07;;;1.80;;
51558;SDS011;61650;48.882;2.092;2022-07-10T01:54:51;3.50;;;2.20;;
51558;SDS011;61650;48.882;2.092;2022-07-10T01:57:17;3.50;;;2.00;;
51558;SDS011;61650;48.882;2.092;2022-07-10T01:59:43;4.57;;;1.90;;
51558;SDS011;61650;48.882;2.092;2022-07-10T02:02:09;4.23;;;2.13;;
51558;SDS011;61650;48.882;2.092;2022-07-10T02:04:35;2.47;;;2.10;;
51558;SDS011;61650;48.882;2.092;2022-07-10T02:07:16;4.70;;;2.43;;
51558;SDS011;61650;48.882;2.092;2022-07-10T02:09:45;2.90;;;2.20;;
51558;SDS011;61650;48.882;2.092;2022-07-10T02:12:12;3.53;;;2.50;;
51558;SDS011;61650;48.882;2.092;2022-07-10T02:14:38;2.30;;;2.10;;
51558;SDS011;61650;48.882;2.092;2022-07-10T02:17:05;3.73;;;2.77;;
51558;SDS011;61650;48.882;2.092;2022-07-10T02:19:31;2.53;;;2.10;;
51558;SDS011;61650;48.882;2.092;2022-07-10T02:21:57;3.00;;;2.00;;
51558;SDS011;61650;48.882;2.092;2022-07-10T02:24:23;3.30;;;2.97;;
51558;SDS011;61650;48.882;2.092;2022-07-10T02:26:49;4.17;;;2.50;;
51558;SDS011;61650;48.882;2.092;2022-07-10T02:29:15;4.03;;;2.20;;
51558;SDS011;61650;48.882;2.092;2022-07-10T02:31:41;3.50;;;2.40;;
51558;SDS011;61650;48.882;2.092;2022-07-10T02:34:07;3.57;;;2.17;;
51558;SDS011;61650;48.882;2.092;2022-07-10T02:36:34;3.83;;;2.00;;
51558;SDS011;61650;48.882;2.092;2022-07-10T02:38:59;3.77;;;2.53;;
51558;SDS011;61650;48.882;2.092;2022-07-10T02:41:25;4.53;;;2.90;;
51558;SDS011;61650;48.882;2.092;2022-07-10T02:43:51;2.67;;;2.47;;
51558;SDS011;61650;48.882;2.092;2022-07-10T02:46:17;3.00;;;2.70;;
51558;SDS011;61650;48.882;2.092;2022-07-10T02:48:42;3.00;;;2.47;;
51558;SDS011;61650;48.882;2.092;2022-07-10T02:51:08;4.57;;;2.37;;
51558;SDS011;61650;48.882;2.092;2022-07-10T02:53:34;3.60;;;2.53;;
51558;SDS011;61650;48.882;2.092;2022-07-10T02:55:59;3.93;;;2.60;;
51558;SDS011;61650;48.882;2.092;2022-07-10T02:58:25;2.83;;;2.30;;
51558;SDS011;61650;48.882;2.092;2022-07-10T03:00:51;4.97;;;2.97;;
51558;SDS011;61650;48.882;2.092;2022-07-10T03:03:16;4.50;;;2.47;;
51558;SDS011;61650;48.882;2.092;2022-07-10T03:05:42;3.00;;;2.60;;
51558;SDS011;61650;48.882;2.092;2022-07-10T03:08:11;4.90;;;2.87;;
51558;SDS011;61650;48.882;2.092;2022-07-10T03:10:37;3.10;;;2.67;;
51558;SDS011;61650;48.882;2.092;2022-07-10T03:13:03;3.10;;;2.87;;
51558;SDS011;61650;48.882;2.092;2022-07-10T03:15:29;6.10;;;3.00;;
51558;SDS011;61650;48.882;2.092;2022-07-10T03:17:54;3.77;;;2.60;;
51558;SDS011;61650;48.882;2.092;2022-07-10T03:20:20;3.83;;;2.50;;
51558;SDS011;61650;48.882;2.092;2022-07-10T03:22:46;6.33;;;2.97;;
51558;SDS011;61650;48.882;2.092;2022-07-10T03:25:11;4.23;;;3.30;;
51558;SDS011;61650;48.882;2.092;2022-07-10T03:27:38;3.30;;;2.67;;
51558;SDS011;61650;48.882;2.092;2022-07-10T03:30:04;4.57;;;2.50;;
51558;SDS011;61650;48.882;2.092;2022-07-10T03:32:30;2.70;;;2.13;;
51558;SDS011;61650;48.882;2.092;2022-07-10T03:34:56;3.50;;;2.40;;
51558;SDS011;61650;48.882;2.092;2022-07-10T03:37:22;4.07;;;3.20;;
51558;SDS011;61650;48.882;2.092;2022-07-10T03:39:48;5.70;;;3.07;;
51558;SDS011;61650;48.882;2.092;2022-07-10T03:42:14;7.60;;;3.07;;
51558;SDS011;61650;48.882;2.092;2022-07-10T03:44:40;4.03;;;3.47;;
51558;SDS011;61650;48.882;2.092;2022-07-10T03:47:05;3.37;;;2.47;;
51558;SDS011;61650;48.882;2.092;2022-07-10T03:49:31;4.70;;;2.70;;
51558;SDS011;61650;48.882;2.092;2022-07-10T03:52:00;3.57;;;2.77;;
51558;SDS011;61650;48.882;2.092;2022-07-10T03:54:27;3.60;;;2.63;;
51558;SDS011;61650;48.882;2.092;2022-07-10T03:56:53;5.30;;;3.00;;
51558;SDS011;61650;48.882;2.092;2022-07-10T03:59:38;4.50;;;2.97;;
51558;SDS011;61650;48.882;2.092;2022-07-10T04:02:03;3.63;;;2.60;;
51558;SDS011;61650;48.882;2.092;2022-07-10T04:04:29;4.40;;;2.90;;
51558;SDS011;61650;48.882;2.092;2022-07-10T04:06:56;4.53;;;2.93;;
51558;SDS011;61650;48.882;2.092;2022-07-10T04:09:21;3.80;;;2.80;;
51558;SDS011;61650;48.882;2.092;2022-07-10T04:11:47;3.63;;;2.80;;
51558;SDS011;61650;48.882;2.092;2022-07-10T04:14:12;4.10;;;2.90;;
51558;SDS011;61650;48.882;2.092;2022-07-10T04:16:38;4.00;;;2.97;;
51558;SDS011;61650;48.882;2.092;2022-07-10T04:19:03;5.37;;;4.37;;
51558;SDS011;61650;48.882;2.092;2022-07-10T04:21:29;5.50;;;4.50;;
51558;SDS011;61650;48.882;2.092;2022-07-10T04:23:55;5.60;;;4.60;;
51558;SDS011;61650;48.882;2.092;2022-07-10T04:26:20;6.47;;;5.20;;
51558;SDS011;61650;48.882;2.092;2022-07-10T04:28:46;9.03;;;5.37;;
51558;SDS011;61650;48.882;2.092;2022-07-10T04:31:11;9.13;;;4.80;;
51558;SDS011;61650;48.882;2.092;2022-07-10T04:33:37;4.40;;;3.97;;
51558;SDS011;61650;48.882;2.092;2022-07-10T04:36:03;3.33;;;2.90;;
51558;SDS011;61650;48.882;2.092;2022-07-10T04:38:28;5.23;;;2.90;;
51558;SDS011;61650;48.882;2.092;2022-07-10T04:40:54;3.07;;;2.60;;
51558;SDS011;61650;48.882;2.092;2022-07-10T04:43:20;3.73;;;3.07;;
51558;SDS011;61650;48.882;2.092;2022-07-10T04:45:46;3.60;;;3.10;;
51558;SDS011;61650;48.882;2.092;2022-07-10T04:48:11;5.67;;;3.30;;
51558;SDS011;61650;48.882;2.092;2022-07-10T04:50:37;5.20;;;3.40;;
51558;SDS011;61650;48.882;2.092;2022-07-10T04:53:03;5.73;;;3.00;;
51558;SDS011;61650;48.882;2.092;2022-07-10T04:55:28;3.80;;;3.00;;
51558;SDS011;61650;48.882;2.092;2022-07-10T04:57:54;6.80;;;3.03;;
51558;SDS011;61650;48.882;2.092;2022-07-10T05:00:20;4.40;;;2.73;;
51558;SDS011;61650;48.882;2.092;2022-07-10T05:02:46;3.20;;;2.60;;
51558;SDS011;61650;48.882;2.092;2022-07-10T05:05:12;3.00;;;2.70;;
51558;SDS011;61650;48.882;2.092;2022-07-10T05:07:38;5.10;;;2.70;;
51558;SDS011;61650;48.882;2.092;2022-07-10T05:10:03;2.87;;;2.57;;
51558;SDS011;61650;48.882;2.092;2022-07-10T05:12:29;6.70;;;2.80;;
51558;SDS011;61650;48.882;2.092;2022-07-10T05:14:55;3.03;;;2.83;;
51558;SDS011;61650;48.882;2.092;2022-07-10T05:17:21;4.00;;;2.73;;
51558;SDS011;61650;48.882;2.092;2022-07-10T05:19:47;4.33;;;2.97;;
51558;SDS011;61650;48.882;2.092;2022-07-10T05:22:13;4.30;;;3.00;;
51558;SDS011;61650;48.882;2.092;2022-07-10T05:24:38;3.57;;;3.23;;
51558;SDS011;61650;48.882;2.092;2022-07-10T05:27:04;5.03;;;2.70;;
51558;SDS011;61650;48.882;2.092;2022-07-10T05:29:30;4.50;;;3.07;;
51558;SDS011;61650;48.882;2.092;2022-07-10T05:31:56;3.10;;;2.80;;
51558;SDS011;61650;48.882;2.092;2022-07-10T05:34:21;4.37;;;2.60;;
51558;SDS011;61650;48.882;2.092;2022-07-10T05:36:47;4.67;;;2.63;;
51558;SDS011;61650;48.882;2.092;2022-07-10T05:39:12;4.07;;;2.83;;
51558;SDS011;61650;48.882;2.092;2022-07-10T05:41:38;5.53;;;3.07;;
51558;SDS011;61650;48.882;2.092;2022-07-10T05:44:04;4.13;;;3.00;;
51558;SDS011;61650;48.882;2.092;2022-07-10T05:46:30;3.33;;;2.83;;
51558;SDS011;61650;48.882;2.092;2022-07-10T05:48:56;5.33;;;2.90;;
51558;SDS011;61650;48.882;2.092;2022-07-10T05:51:21;5.37;;;3.13;;
51558;SDS011;61650;48.882;2.092;2022-07-10T05:53:47;3.20;;;2.90;;
51558;SDS011;61650;48.882;2.092;2022-07-10T05:56:12;5.03;;;2.97;;
51558;SDS011;61650;48.882;2.092;2022-07-10T05:58:38;5.70;;;3.00;;
51558;SDS011;61650;48.882;2.092;2022-07-10T06:01:04;3.20;;;2.70;;
51558;SDS011;61650;48.882;2.092;2022-07-10T06:03:29;5.97;;;3.00;;
51558;SDS011;61650;48.882;2.092;2022-07-10T06:05:55;4.57;;;3.07;;
51558;SDS011;61650;48.882;2.092;2022-07-10T06:08:21;4.37;;;2.87;;
51558;SDS011;61650;48.882;2.092;2022-07-10T06:10:46;4.10;;;3.00;;
51558;SDS011;61650;48.882;2.092;2022-07-10T06:13:12;4.77;;;2.43;;
51558;SDS011;61650;48.882;2.092;2022-07-10T06:15:38;3.57;;;3.27;;
51558;SDS011;61650;48.882;2.092;2022-07-10T06:18:03;6.03;;;3.43;;
51558;SDS011;61650;48.882;2.092;2022-07-10T06:20:29;6.53;;;3.10;;
51558;SDS011;61650;48.882;2.092;2022-07-10T06:22:56;3.43;;;3.10;;
51558;SDS011;61650;48.882;2.092;2022-07-10T06:25:24;4.53;;;3.10;;
51558;SDS011;61650;48.882;2.092;2022-07-10T06:27:50;5.90;;;3.00;;
51558;SDS011;61650;48.882;2.092;2022-07-10T06:30:15;5.63;;;3.20;;
51558;SDS011;61650;48.882;2.092;2022-07-10T06:32:41;5.13;;;3.17;;
51558;SDS011;61650;48.882;2.092;2022-07-10T06:35:07;6.13;;;2.83;;
51558;SDS011;61650;48.882;2.092;2022-07-10T06:37:33;5.30;;;3.40;;
51558;SDS011;61650;48.882;2.092;2022-07-10T06:39:59;3.43;;;3.10;;
51558;SDS011;61650;48.882;2.092;2022-07-10T06:42:25;6.33;;;2.90;;
51558;SDS011;61650;48.882;2.092;2022-07-10T06:44:50;4.60;;;2.83;;
51558;SDS011;61650;48.882;2.092;2022-07-10T06:47:17;3.10;;;2.67;;
51558;SDS011;61650;48.882;2.092;2022-07-10T06:50:03;4.40;;;2.80;;
51558;SDS011;61650;48.882;2.092;2022-07-10T06:52:33;5.00;;;3.00;;
51558;SDS011;61650;48.882;2.092;2022-07-10T06:54:59;5.20;;;3.03;;
51558;SDS011;61650;48.882;2.092;2022-07-10T06:57:28;4.50;;;2.80;;
51558;SDS011;61650;48.882;2.092;2022-07-10T06:59:54;6.33;;;2.77;;
51558;SDS011;61650;48.882;2.092;2022-07-10T07:02:20;5.07;;;2.93;;
51558;SDS011;61650;48.882;2.092;2022-07-10T07:04:46;5.90;;;2.60;;
51558;SDS011;61650;48.882;2.092;2022-07-10T07:07:12;6.67;;;2.70;;
51558;SDS011;61650;48.882;2.092;2022-07-10T07:09:38;4.37;;;2.33;;
51558;SDS011;61650;48.882;2.092;2022-07-10T07:12:04;3.17;;;2.53;;
51558;SDS011;61650;48.882;2.092;2022-07-10T07:14:31;3.23;;;2.73;;
51558;SDS011;61650;48.882;2.092;2022-07-10T07:16:56;3.67;;;2.67;;
51558;SDS011;61650;48.882;2.092;2022-07-10T07:19:24;3.07;;;2.77;;
51558;SDS011;61650;48.882;2.092;2022-07-10T07:21:59;3.30;;;2.27;;
51558;SDS011;61650;48.882;2.092;2022-07-10T07:24:43;5.73;;;2.73;;
51558;SDS011;61650;48.882;2.092;2022-07-10T07:27:10;3.40;;;2.40;;
51558;SDS011;61650;48.882;2.092;2022-07-10T07:29:36;2.93;;;2.33;;
51558;SDS011;61650;48.882;2.092;2022-07-10T07:32:02;2.97;;;2.40;;
51558;SDS011;61650;48.882;2.092;2022-07-10T07:34:28;2.67;;;2.17;;
51558;SDS011;61650;48.882;2.092;2022-07-10T07:36:55;4.73;;;2.40;;
51558;SDS011;61650;48.882;2.092;2022-07-10T07:39:21;3.03;;;2.60;;
51558;SDS011;61650;48.882;2.092;2022-07-10T07:41:47;3.30;;;2.70;;
51558;SDS011;61650;48.882;2.092;2022-07-10T07:44:13;2.20;;;2.03;;
51558;SDS011;61650;48.882;2.092;2022-07-10T07:46:38;4.27;;;2.13;;
51558;SDS011;61650;48.882;2.092;2022-07-10T07:49:04;2.33;;;2.13;;
51558;SDS011;61650;48.882;2.092;2022-07-10T07:51:29;2.50;;;2.10;;
51558;SDS011;61650;48.882;2.092;2022-07-10T07:53:55;5.03;;;2.60;;
51558;SDS011;61650;48.882;2.092;2022-07-10T07:56:20;2.70;;;2.17;;
51558;SDS011;61650;48.882;2.092;2022-07-10T07:58:46;3.20;;;1.90;;
51558;SDS011;61650;48.882;2.092;2022-07-10T08:01:11;2.37;;;2.00;;
51558;SDS011;61650;48.882;2.092;2022-07-10T08:03:37;2.83;;;1.87;;
51558;SDS011;61650;48.882;2.092;2022-07-10T08:06:03;2.40;;;1.67;;
51558;SDS011;61650;48.882;2.092;2022-07-10T08:08:28;3.00;;;1.67;;
51558;SDS011;61650;48.882;2.092;2022-07-10T08:10:55;3.77;;;2.10;;
51558;SDS011;61650;48.882;2.092;2022-07-10T08:13:21;2.23;;;2.03;;
51558;SDS011;61650;48.882;2.092;2022-07-10T08:15:47;2.70;;;2.13;;
51558;SDS011;61650;48.882;2.092;2022-07-10T08:18:13;2.43;;;2.23;;
51558;SDS011;61650;48.882;2.092;2022-07-10T08:20:39;2.50;;;2.00;;
51558;SDS011;61650;48.882;2.092;2022-07-10T08:23:05;2.70;;;2.00;;
51558;SDS011;61650;48.882;2.092;2022-07-10T08:25:30;2.20;;;1.70;;
51558;SDS011;61650;48.882;2.092;2022-07-10T08:28:01;2.33;;;1.87;;
51558;SDS011;61650;48.882;2.092;2022-07-10T08:30:28;2.70;;;2.27;;
51558;SDS011;61650;48.882;2.092;2022-07-10T08:32:54;4.67;;;2.17;;
51558;SDS011;61650;48.882;2.092;2022-07-10T08:35:19;2.50;;;1.90;;
51558;SDS011;61650;48.882;2.092;2022-07-10T08:37:45;15.37;;;3.00;;
51558;SDS011;61650;48.882;2.092;2022-07-10T08:40:12;2.03;;;1.93;;
51558;SDS011;61650;48.882;2.092;2022-07-10T08:42:40;2.20;;;2.00;;
51558;SDS011;61650;48.882;2.092;2022-07-10T08:45:06;2.27;;;1.70;;
51558;SDS011;61650;48.882;2.092;2022-07-10T08:47:36;2.00;;;1.90;;
51558;SDS011;61650;48.882;2.092;2022-07-10T08:50:03;2.23;;;1.60;;
51558;SDS011;61650;48.882;2.092;2022-07-10T08:55:24;2.13;;;1.93;;
51558;SDS011;61650;48.882;2.092;2022-07-10T08:57:50;2.40;;;1.80;;
51558;SDS011;61650;48.882;2.092;2022-07-10T09:00:17;3.27;;;2.27;;
51558;SDS011;61650;48.882;2.092;2022-07-10T09:02:42;3.00;;;2.10;;
51558;SDS011;61650;48.882;2.092;2022-07-10T09:05:08;2.33;;;2.03;;
51558;SDS011;61650;48.882;2.092;2022-07-10T09:07:34;2.20;;;2.10;;
51558;SDS011;61650;48.882;2.092;2022-07-10T09:10:04;2.30;;;2.10;;
51558;SDS011;61650;48.882;2.092;2022-07-10T09:15:19;3.27;;;1.90;;
51558;SDS011;61650;48.882;2.092;2022-07-10T09:17:50;2.57;;;2.03;;
51558;SDS011;61650;48.882;2.092;2022-07-10T09:20:26;3.13;;;2.10;;
51558;SDS011;61650;48.882;2.092;2022-07-10T09:22:55;2.33;;;2.10;;
51558;SDS011;61650;48.882;2.092;2022-07-10T09:25:24;2.80;;;2.37;;
51558;SDS011;61650;48.882;2.092;2022-07-10T09:27:57;2.33;;;2.13;;
51558;SDS011;61650;48.882;2.092;2022-07-10T09:30:58;2.40;;;2.07;;
51558;SDS011;61650;48.882;2.092;2022-07-10T09:33:23;4.07;;;2.03;;
51558;SDS011;61650;48.882;2.092;2022-07-10T09:36:00;4.23;;;2.00;;
51558;SDS011;61650;48.882;2.092;2022-07-10T09:41:15;2.13;;;2.00;;
51558;SDS011;61650;48.882;2.092;2022-07-10T09:44:03;3.50;;;2.03;;
51558;SDS011;61650;48.882;2.092;2022-07-10T09:46:33;3.00;;;1.87;;
51558;SDS011;61650;48.882;2.092;2022-07-10T09:49:10;2.30;;;2.10;;
51558;SDS011;61650;48.882;2.092;2022-07-10T09:51:42;3.87;;;2.10;;
51558;SDS011;61650;48.882;2.092;2022-07-10T09:54:09;2.27;;;2.07;;
51558;SDS011;61650;48.882;2.092;2022-07-10T09:56:39;3.20;;;2.10;;
51558;SDS011;61650;48.882;2.092;2022-07-10T09:59:12;2.30;;;2.13;;
51558;SDS011;61650;48.882;2.092;2022-07-10T10:01:46;2.50;;;2.30;;
51558;SDS011;61650;48.882;2.092;2022-07-10T10:04:13;2.50;;;2.20;;
51558;SDS011;61650;48.882;2.092;2022-07-10T10:06:40;4.37;;;2.30;;
51558;SDS011;61650;48.882;2.092;2022-07-10T10:09:26;2.43;;;2.23;;
51558;SDS011;61650;48.882;2.092;2022-07-10T10:11:55;2.23;;;2.03;;
51558;SDS011;61650;48.882;2.092;2022-07-10T10:14:27;3.30;;;2.77;;
51558;SDS011;61650;48.882;2.092;2022-07-10T10:16:54;3.40;;;2.10;;
51558;SDS011;61650;48.882;2.092;2022-07-10T10:19:22;3.47;;;2.17;;
51558;SDS011;61650;48.882;2.092;2022-07-10T10:22:07;2.33;;;1.83;;
51558;SDS011;61650;48.882;2.092;2022-07-10T10:24:33;3.57;;;2.17;;
51558;SDS011;61650;48.882;2.092;2022-07-10T10:27:00;2.00;;;1.90;;
51558;SDS011;61650;48.882;2.092;2022-07-10T10:29:26;3.13;;;2.00;;
51558;SDS011;61650;48.882;2.092;2022-07-10T10:31:52;2.40;;;2.20;;
51558;SDS011;61650;48.882;2.092;2022-07-10T10:37:05;2.27;;;2.10;;
51558;SDS011;61650;48.882;2.092;2022-07-10T10:39:32;1.97;;;1.80;;
51558;SDS011;61650;48.882;2.092;2022-07-10T10:45:25;16.27;;;3.43;;
51558;SDS011;61650;48.882;2.092;2022-07-10T10:58:27;2.57;;;2.37;;
51558;SDS011;61650;48.882;2.092;2022-07-10T11:01:03;2.43;;;2.23;;
51558;SDS011;61650;48.882;2.092;2022-07-10T11:03:30;3.10;;;2.20;;
51558;SDS011;61650;48.882;2.092;2022-07-10T11:05:56;3.00;;;1.93;;
51558;SDS011;61650;48.882;2.092;2022-07-10T11:08:35;2.17;;;2.00;;
51558;SDS011;61650;48.882;2.092;2022-07-10T11:11:36;2.00;;;1.70;;
51558;SDS011;61650;48.882;2.092;2022-07-10T11:13:57;2.47;;;2.27;;
51558;SDS011;61650;48.882;2.092;2022-07-10T11:16:23;2.10;;;1.90;;
51558;SDS011;61650;48.882;2.092;2022-07-10T11:18:53;4.50;;;2.13;;
51558;SDS011;61650;48.882;2.092;2022-07-10T11:21:22;2.33;;;2.10;;
51558;SDS011;61650;48.882;2.092;2022-07-10T11:26:34;4.20;;;3.40;;
51558;SDS011;61650;48.882;2.092;2022-07-10T11:29:02;7.27;;;6.57;;
51558;SDS011;61650;48.882;2.092;2022-07-10T11:31:32;8.53;;;5.00;;
51558;SDS011;61650;48.882;2.092;2022-07-10T11:34:09;2.10;;;1.90;;
51558;SDS011;61650;48.882;2.092;2022-07-10T11:36:37;1.97;;;1.80;;
51558;SDS011;61650;48.882;2.092;2022-07-10T11:39:04;9.30;;;6.40;;
51558;SDS011;61650;48.882;2.092;2022-07-10T11:41:32;3.40;;;2.80;;
51558;SDS011;61650;48.882;2.092;2022-07-10T11:43:59;2.10;;;1.90;;
51558;SDS011;61650;48.882;2.092;2022-07-10T11:46:27;4.20;;;1.97;;
51558;SDS011;61650;48.882;2.092;2022-07-10T11:48:55;1.80;;;1.70;;
51558;SDS011;61650;48.882;2.092;2022-07-10T11:51:23;2.73;;;2.00;;
51558;SDS011;61650;48.882;2.092;2022-07-10T11:53:59;3.63;;;1.70;;
51558;SDS011;61650;48.882;2.092;2022-07-10T11:56:30;3.00;;;1.77;;
51558;SDS011;61650;48.882;2.092;2022-07-10T11:59:43;2.20;;;2.10;;
51558;SDS011;61650;48.882;2.092;2022-07-10T12:01:52;1.90;;;1.80;;
51558;SDS011;61650;48.882;2.092;2022-07-10T12:04:19;2.83;;;1.80;;
51558;SDS011;61650;48.882;2.092;2022-07-10T12:06:52;2.70;;;2.50;;
51558;SDS011;61650;48.882;2.092;2022-07-10T12:09:22;2.23;;;1.70;;
51558;SDS011;61650;48.882;2.092;2022-07-10T12:12:04;3.03;;;2.57;;
51558;SDS011;61650;48.882;2.092;2022-07-10T12:14:31;5.13;;;2.67;;
51558;SDS011;61650;48.882;2.092;2022-07-10T12:16:58;5.33;;;4.83;;
51558;SDS011;61650;48.882;2.092;2022-07-10T12:19:25;1.77;;;1.67;;
51558;SDS011;61650;48.882;2.092;2022-07-10T12:21:55;1.57;;;1.47;;
51558;SDS011;61650;48.882;2.092;2022-07-10T12:24:21;2.30;;;1.93;;
51558;SDS011;61650;48.882;2.092;2022-07-10T12:26:49;2.13;;;1.90;;
51558;SDS011;61650;48.882;2.092;2022-07-10T12:31:43;1.60;;;1.50;;
51558;SDS011;61650;48.882;2.092;2022-07-10T12:34:10;1.83;;;1.73;;
51558;SDS011;61650;48.882;2.092;2022-07-10T12:36:46;3.17;;;2.00;;
51558;SDS011;61650;48.882;2.092;2022-07-10T12:39:17;2.83;;;2.20;;
51558;SDS011;61650;48.882;2.092;2022-07-10T12:44:50;2.13;;;1.20;;
51558;SDS011;61650;48.882;2.092;2022-07-10T12:47:15;2.27;;;1.30;;
51558;SDS011;61650;48.882;2.092;2022-07-10T12:49:55;1.93;;;1.40;;
51558;SDS011;61650;48.882;2.092;2022-07-10T12:52:27;2.50;;;1.30;;
51558;SDS011;61650;48.882;2.092;2022-07-10T12:55:06;2.20;;;1.50;;
51558;SDS011;61650;48.882;2.092;2022-07-10T13:08:15;2.17;;;1.50;;
51558;SDS011;61650;48.882;2.092;2022-07-10T13:10:46;1.40;;;1.30;;
51558;SDS011;61650;48.882;2.092;2022-07-10T13:13:14;1.73;;;1.43;;
51558;SDS011;61650;48.882;2.092;2022-07-10T13:15:40;1.70;;;1.60;;
51558;SDS011;61650;48.882;2.092;2022-07-10T13:18:17;1.77;;;1.10;;
51558;SDS011;61650;48.882;2.092;2022-07-10T13:20:46;3.10;;;1.60;;
51558;SDS011;61650;48.882;2.092;2022-07-10T13:23:16;1.80;;;1.20;;
51558;SDS011;61650;48.882;2.092;2022-07-10T13:25:46;2.33;;;1.30;;
51558;SDS011;61650;48.882;2.092;2022-07-10T13:28:11;2.37;;;1.20;;
51558;SDS011;61650;48.882;2.092;2022-07-10T13:30:37;1.30;;;1.20;;
51558;SDS011;61650;48.882;2.092;2022-07-10T13:33:02;1.83;;;1.57;;
51558;SDS011;61650;48.882;2.092;2022-07-10T13:35:29;3.07;;;1.37;;
51558;SDS011;61650;48.882;2.092;2022-07-10T13:37:55;1.37;;;1.23;;
51558;SDS011;61650;48.882;2.092;2022-07-10T13:40:24;3.53;;;1.30;;
51558;SDS011;61650;48.882;2.092;2022-07-10T13:42:51;1.93;;;1.30;;
51558;SDS011;61650;48.882;2.092;2022-07-10T13:45:17;1.17;;;1.07;;
51558;SDS011;61650;48.882;2.092;2022-07-10T13:47:43;2.60;;;1.50;;
51558;SDS011;61650;48.882;2.092;2022-07-10T13:50:09;1.40;;;1.30;;
51558;SDS011;61650;48.882;2.092;2022-07-10T13:52:34;3.00;;;1.43;;
51558;SDS011;61650;48.882;2.092;2022-07-10T13:55:00;1.90;;;1.40;;
51558;SDS011;61650;48.882;2.092;2022-07-10T13:57:26;1.43;;;1.33;;
51558;SDS011;61650;48.882;2.092;2022-07-10T13:59:52;1.97;;;1.50;;
51558;SDS011;61650;48.882;2.092;2022-07-10T14:02:18;3.83;;;1.40;;
51558;SDS011;61650;48.882;2.092;2022-07-10T14:05:07;2.63;;;1.63;;
51558;SDS011;61650;48.882;2.092;2022-07-10T14:07:33;2.60;;;1.50;;
51558;SDS011;61650;48.882;2.092;2022-07-10T14:09:59;2.23;;;1.20;;
51558;SDS011;61650;48.882;2.092;2022-07-10T14:12:26;1.60;;;1.23;;
51558;SDS011;61650;48.882;2.092;2022-07-10T14:14:51;4.90;;;1.30;;
51558;SDS011;61650;48.882;2.092;2022-07-10T14:17:17;1.93;;;1.20;;
51558;SDS011;61650;48.882;2.092;2022-07-10T14:19:43;2.83;;;1.30;;
51558;SDS011;61650;48.882;2.092;2022-07-10T14:22:08;3.83;;;1.20;;
51558;SDS011;61650;48.882;2.092;2022-07-10T14:24:34;5.20;;;1.43;;
51558;SDS011;61650;48.882;2.092;2022-07-10T14:26:59;3.47;;;1.30;;
51558;SDS011;61650;48.882;2.092;2022-07-10T14:29:25;1.30;;;1.20;;
51558;SDS011;61650;48.882;2.092;2022-07-10T14:31:51;3.20;;;1.53;;
51558;SDS011;61650;48.882;2.092;2022-07-10T14:34:17;1.63;;;1.20;;
51558;SDS011;61650;48.882;2.092;2022-07-10T14:36:43;1.20;;;1.10;;
51558;SDS011;61650;48.882;2.092;2022-07-10T14:39:08;1.57;;;1.30;;
51558;SDS011;61650;48.882;2.092;2022-07-10T14:41:36;1.43;;;1.30;;
51558;SDS011;61650;48.882;2.092;2022-07-10T14:44:03;1.70;;;1.40;;
51558;SDS011;61650;48.882;2.092;2022-07-10T14:46:29;1.23;;;1.13;;
51558;SDS011;61650;48.882;2.092;2022-07-10T14:48:55;1.57;;;1.30;;
51558;SDS011;61650;48.882;2.092;2022-07-10T14:51:20;1.77;;;1.40;;
51558;SDS011;61650;48.882;2.092;2022-07-10T14:53:46;2.07;;;1.40;;
51558;SDS011;61650;48.882;2.092;2022-07-10T14:56:13;2.03;;;1.23;;
51558;SDS011;61650;48.882;2.092;2022-07-10T14:58:41;1.40;;;1.30;;
51558;SDS011;61650;48.882;2.092;2022-07-10T15:01:07;1.70;;;1.20;;
51558;SDS011;61650;48.882;2.092;2022-07-10T15:03:32;1.87;;;0.90;;
51558;SDS011;61650;48.882;2.092;2022-07-10T15:05:58;1.67;;;1.33;;
51558;SDS011;61650;48.882;2.092;2022-07-10T15:08:24;2.53;;;1.30;;
51558;SDS011;61650;48.882;2.092;2022-07-10T15:10:49;1.93;;;0.90;;
51558;SDS011;61650;48.882;2.092;2022-07-10T15:13:16;4.60;;;1.30;;
51558;SDS011;61650;48.882;2.092;2022-07-10T15:15:42;1.43;;;1.20;;
51558;SDS011;61650;48.882;2.092;2022-07-10T15:18:08;3.00;;;1.70;;
51558;SDS011;61650;48.882;2.092;2022-07-10T15:20:34;2.57;;;1.47;;
51558;SDS011;61650;48.882;2.092;2022-07-10T15:23:01;1.90;;;1.20;;
51558;SDS011;61650;48.882;2.092;2022-07-10T15:25:27;1.30;;;1.20;;
51558;SDS011;61650;48.882;2.092;2022-07-10T15:27:54;1.67;;;1.23;;
51558;SDS011;61650;48.882;2.092;2022-07-10T15:30:20;2.60;;;1.70;;
51558;SDS011;61650;48.882;2.092;2022-07-10T15:32:45;1.30;;;1.20;;